Stockholm, Sweden

8:14 AM CET on January 18, 2017 (GMT +0100)
Norr Mälarstrand | | Change Station

Elev 52 ft 59.33 °N, 18.05 °E | Updated 7 minutes ago

Overcast
Overcast
34.2 °F
Feels Like 32 °F
N
3.1
Wind Variable Wind from WSW
Gusts 5.0 mph

Today
High -- | Low -- °F
--% Chance of Precip.
Yesterday
High -- | Low -- °F
Precip. -- in
Pressure 30.33 in
Visibility 6.2 miles
Clouds Mostly Cloudy 600 ft
Windchill 32 °F
Dew Point 32 °F
Humidity 92%
Rainfall Not available.
Snow Depth Not available.
8:25 AM 3:31 PM
Waning Gibbous, 66% visible
METAR ESSB 180650Z 23006KT 9999 BKN006 01/00 Q1027 R30/29//71
Pressure 30.33 in
Visibility 6.2 miles
Clouds Mostly Cloudy 600 ft
Windchill 32 °F
Dew Point 32 °F
Humidity 92%
Rainfall Not available.
Snow Depth Not available.
8:25 AM 3:31 PM
Waning Gibbous, 66% visible
METAR ESSB 180650Z 23006KT 9999 BKN006 01/00 Q1027 R30/29//71

Get Your Daily Forecast Email!

Thanks for signing up!

Be on the lookout for a verification email in your inbox.

You'll start receiving the daily forecast at 8 AM.

×

10-Day Weather Forecast

×

Almanac

Astronomy

Jan. 18, 2017 Rise Set
Actual Time
Civil Twilight
Nautical Twilight
Astronomical Twilight
Moon
Length of Visible Light
Length of Day
Tomorrow will be .
, % of the Moon is Illuminated

Today's Extremes

Country Highs Country Lows

Community

WunderPhotos

Upload Photos

1,962,540 photos uploaded!

WunderBlog® & News

Nearby

Air Quality

  Air Quality AQ Index Pollutant
Not available.

Snow Depth

Station Depth Elevation

Earthquake Activity

City Distance Mag. Time & Date
Minimum magnitude displayed is 2.5.

Coastal Water Temperatures

Place Temperature

Stations

Nearby Weather Stations

Station Location Temp. Windchill Dew Point Humidity Wind Precip. Elev Updated Type